createdAt,value
2023-03-06T00:00:57.076Z,47.71
2023-03-06T00:03:24.319Z,47.80
2023-03-06T00:05:50.982Z,47.40
2023-03-06T00:08:17.575Z,47.60
2023-03-06T00:10:44.601Z,47.55
2023-03-06T00:13:13.633Z,47.63
2023-03-06T00:15:41.153Z,47.86
2023-03-06T00:18:08.222Z,47.35
2023-03-06T00:20:35.484Z,47.68
2023-03-06T00:23:02.897Z,47.56
2023-03-06T00:25:29.449Z,47.58
2023-03-06T00:27:56.193Z,47.64
2023-03-06T00:30:24.664Z,47.90
2023-03-06T00:32:52.892Z,47.82
2023-03-06T00:35:19.718Z,48.25
2023-03-06T00:37:46.333Z,48.00
2023-03-06T00:40:19.847Z,47.74
2023-03-06T00:42:46.793Z,48.02
2023-03-06T00:45:14.446Z,48.31
2023-03-06T00:47:41.521Z,49.08
2023-03-06T00:50:09.325Z,48.65
2023-03-06T00:52:36.189Z,48.61
2023-03-06T00:55:02.952Z,48.73
2023-03-06T00:57:30.286Z,48.81
2023-03-06T00:59:56.763Z,48.74
2023-03-06T01:02:23.353Z,48.49
2023-03-06T01:04:49.962Z,49.20
2023-03-06T01:07:16.795Z,49.20
2023-03-06T01:09:44.233Z,49.62
2023-03-06T01:12:10.784Z,49.89
2023-03-06T01:14:37.455Z,49.94
2023-03-06T01:17:04.281Z,50.13
2023-03-06T01:19:30.977Z,50.38
2023-03-06T01:21:57.572Z,50.43
2023-03-06T01:24:25.829Z,50.08
2023-03-06T01:26:52.742Z,50.21
2023-03-06T01:29:19.328Z,50.78
2023-03-06T01:31:45.981Z,51.55
2023-03-06T01:34:12.593Z,51.28
2023-03-06T01:36:39.422Z,50.86
2023-03-06T01:39:06.094Z,51.06
2023-03-06T01:41:32.989Z,50.97
2023-03-06T01:43:59.768Z,50.82
2023-03-06T01:46:30.270Z,51.04
2023-03-06T01:49:01.049Z,52.33
2023-03-06T01:51:32.683Z,51.16
2023-03-06T01:54:02.913Z,51.13
2023-03-06T01:56:29.845Z,51.25
2023-03-06T01:58:58.458Z,50.87
2023-03-06T02:01:25.919Z,51.77
2023-03-06T02:03:52.933Z,51.48
2023-03-06T02:06:21.898Z,51.61
2023-03-06T02:08:51.699Z,50.93
2023-03-06T02:11:25.782Z,51.26
2023-03-06T02:13:57.834Z,51.28
2023-03-06T02:16:27.894Z,51.86
2023-03-06T02:18:55.281Z,51.96
2023-03-06T02:21:26.143Z,52.23
2023-03-06T02:24:08.794Z,52.63
2023-03-06T02:26:37.577Z,52.66
2023-03-06T02:29:04.610Z,52.71
2023-03-06T02:31:33.722Z,51.97
2023-03-06T02:34:16.754Z,52.21
2023-03-06T02:36:47.599Z,52.68
2023-03-06T02:39:16.176Z,52.26
2023-03-06T02:41:42.754Z,53.47
2023-03-06T02:44:09.306Z,53.50
2023-03-06T02:46:36.175Z,52.81
2023-03-06T02:49:02.822Z,53.22
2023-03-06T02:51:29.319Z,54.15
2023-03-06T02:53:55.860Z,54.27
2023-03-06T02:56:22.884Z,54.23
2023-03-06T02:58:49.418Z,54.72
2023-03-06T03:01:16.284Z,54.61
2023-03-06T03:03:42.866Z,55.45
2023-03-06T03:06:09.376Z,55.26
2023-03-06T03:08:36.319Z,55.54
2023-03-06T03:11:04.318Z,55.58
2023-03-06T03:13:30.851Z,54.95
2023-03-06T03:16:01.148Z,55.59
2023-03-06T03:18:28.136Z,55.43
2023-03-06T03:20:55.321Z,55.47
2023-03-06T03:23:22.854Z,55.75
2023-03-06T03:25:50.114Z,56.08
2023-03-06T03:28:17.361Z,54.79
2023-03-06T03:30:43.985Z,55.54
2023-03-06T03:33:11.359Z,55.63
2023-03-06T03:35:38.068Z,54.92
2023-03-06T03:38:04.998Z,55.38
2023-03-06T03:40:31.583Z,56.17
2023-03-06T03:42:58.339Z,55.91
2023-03-06T03:45:27.757Z,56.19
2023-03-06T03:47:54.257Z,56.15
2023-03-06T03:50:20.810Z,56.65
2023-03-06T03:52:47.436Z,56.23
2023-03-06T03:55:14.098Z,56.92
2023-03-06T03:57:40.610Z,56.47
2023-03-06T04:00:08.179Z,57.34
2023-03-06T04:02:34.774Z,57.61
2023-03-06T04:05:01.500Z,57.74
2023-03-06T04:07:28.162Z,57.60
2023-03-06T04:09:54.823Z,57.88
2023-03-06T04:12:21.399Z,58.33
2023-03-06T04:14:47.920Z,57.69
2023-03-06T04:17:14.460Z,58.14
2023-03-06T04:19:40.984Z,58.15
2023-03-06T04:22:07.490Z,57.92
2023-03-06T04:24:34.039Z,58.83
2023-03-06T04:27:00.691Z,58.74
2023-03-06T04:29:27.303Z,58.63
2023-03-06T04:31:53.931Z,58.35
2023-03-06T04:34:20.436Z,58.57
2023-03-06T04:36:46.988Z,59.48
2023-03-06T04:39:14.670Z,59.14
2023-03-06T04:41:42.375Z,59.87
2023-03-06T04:44:09.020Z,59.26
2023-03-06T04:46:36.661Z,59.43
2023-03-06T04:49:04.154Z,59.46
2023-03-06T04:51:30.988Z,60.70
2023-03-06T04:53:57.497Z,59.94
2023-03-06T04:56:24.336Z,59.97
2023-03-06T04:58:50.968Z,60.63
2023-03-06T05:01:17.536Z,60.37
2023-03-06T05:03:44.040Z,60.83
2023-03-06T05:06:10.663Z,61.50
2023-03-06T05:08:37.214Z,61.27
2023-03-06T05:11:04.083Z,61.27
2023-03-06T05:13:30.594Z,61.15
2023-03-06T05:16:02.871Z,60.90
2023-03-06T05:18:29.464Z,61.18
2023-03-06T05:21:00.120Z,60.97
2023-03-06T05:23:28.096Z,61.27
2023-03-06T05:25:54.765Z,61.42
2023-03-06T05:28:21.384Z,60.54
2023-03-06T05:30:48.099Z,60.30
2023-03-06T05:33:16.494Z,59.67
2023-03-06T05:35:47.963Z,60.58
2023-03-06T05:38:16.054Z,60.51
2023-03-06T05:40:43.936Z,60.13
2023-03-06T05:43:11.977Z,59.96
2023-03-06T05:45:39.975Z,60.45
2023-03-06T05:48:07.500Z,61.37
2023-03-06T05:50:34.179Z,61.45
2023-03-06T05:53:01.510Z,61.33
2023-03-06T05:55:29.664Z,60.71
2023-03-06T05:57:56.213Z,59.72
2023-03-06T06:00:23.227Z,60.49
2023-03-06T06:02:49.791Z,60.38
2023-03-06T06:05:16.458Z,59.81
2023-03-06T06:07:43.142Z,59.67
2023-03-06T06:10:11.409Z,58.99
2023-03-06T06:12:38.011Z,59.60
2023-03-06T06:15:06.599Z,59.58
2023-03-06T06:17:33.295Z,59.91
2023-03-06T06:19:59.903Z,59.80
2023-03-06T06:22:26.446Z,60.09
2023-03-06T06:24:53.030Z,59.18
2023-03-06T06:27:19.519Z,60.30
2023-03-06T06:29:46.005Z,60.44
2023-03-06T06:32:12.515Z,61.66
2023-03-06T06:34:39.040Z,59.91
2023-03-06T06:37:08.140Z,59.05
2023-03-06T06:39:34.659Z,59.47
2023-03-06T06:42:21.705Z,58.80
2023-03-06T06:44:48.938Z,58.06
2023-03-06T06:47:23.113Z,57.87
2023-03-06T06:49:54.953Z,57.49
2023-03-06T06:52:22.399Z,57.69
2023-03-06T06:54:48.942Z,58.17
2023-03-06T06:57:15.985Z,57.77
2023-03-06T06:59:42.734Z,58.42
2023-03-06T07:02:13.351Z,59.26
2023-03-06T07:04:52.284Z,59.77
2023-03-06T07:07:28.533Z,59.22
2023-03-06T07:09:55.541Z,59.43
2023-03-06T07:12:22.264Z,58.23
2023-03-06T07:14:48.774Z,58.11
2023-03-06T07:17:16.699Z,57.73
2023-03-06T07:19:43.260Z,58.25
2023-03-06T07:22:09.909Z,57.52
2023-03-06T07:24:36.469Z,56.72
2023-03-06T07:27:03.030Z,56.96
2023-03-06T07:29:29.642Z,57.27
2023-03-06T07:31:56.293Z,57.54
2023-03-06T07:34:22.859Z,56.64
2023-03-06T07:36:53.344Z,56.67
2023-03-06T07:39:19.933Z,56.17
2023-03-06T07:41:46.414Z,55.49
2023-03-06T07:44:12.921Z,55.41
2023-03-06T07:46:39.571Z,55.16
2023-03-06T07:49:06.177Z,55.38
2023-03-06T07:51:32.814Z,55.18
2023-03-06T07:53:59.464Z,54.72
2023-03-06T07:56:26.060Z,55.10
2023-03-06T07:58:52.657Z,55.56
2023-03-06T08:01:23.638Z,55.28
2023-03-06T08:03:50.518Z,55.49
2023-03-06T08:06:20.883Z,55.38
2023-03-06T08:08:49.476Z,55.48
2023-03-06T08:11:18.890Z,54.70
2023-03-06T08:13:52.793Z,54.53
2023-03-06T08:16:27.126Z,53.89
2023-03-06T08:18:53.995Z,53.57
2023-03-06T08:21:23.805Z,53.50
2023-03-06T08:23:50.980Z,53.92
2023-03-06T08:26:20.647Z,53.12
2023-03-06T08:28:47.774Z,52.93
2023-03-06T08:31:27.326Z,52.74
2023-03-06T08:33:55.025Z,52.69
2023-03-06T08:36:21.871Z,52.18
2023-03-06T08:38:48.524Z,51.64
2023-03-06T08:41:15.132Z,52.00
2023-03-06T08:43:41.786Z,52.04
2023-03-06T08:46:08.336Z,52.73
2023-03-06T08:48:38.364Z,51.91
2023-03-06T08:51:05.848Z,52.35
2023-03-06T08:53:42.727Z,52.68
2023-03-06T08:56:22.758Z,51.42
2023-03-06T08:58:50.016Z,51.94
2023-03-06T09:01:18.858Z,51.57
2023-03-06T09:03:45.858Z,51.38
2023-03-06T09:06:13.636Z,51.39
2023-03-06T09:08:43.204Z,51.67
2023-03-06T09:11:15.014Z,51.06
2023-03-06T09:13:43.111Z,51.36
2023-03-06T09:16:11.212Z,50.63
2023-03-06T09:18:37.933Z,51.00
2023-03-06T09:21:06.037Z,50.79
2023-03-06T09:23:32.755Z,50.32
2023-03-06T09:26:00.712Z,50.29
2023-03-06T09:28:27.679Z,48.91
2023-03-06T09:30:54.889Z,48.18
2023-03-06T09:33:22.260Z,47.65
2023-03-06T09:35:52.162Z,47.75
2023-03-06T09:38:20.862Z,48.55
2023-03-06T09:41:02.736Z,48.57
2023-03-06T09:43:35.477Z,48.36
2023-03-06T09:46:13.716Z,48.37
2023-03-06T09:48:46.537Z,48.52
2023-03-06T09:51:17.020Z,48.23
2023-03-06T09:53:56.801Z,47.94
2023-03-06T09:56:31.188Z,47.68
2023-03-06T09:59:20.870Z,46.30
2023-03-06T10:02:40.269Z,46.29
2023-03-06T10:05:13.414Z,46.58
2023-03-06T10:07:47.978Z,46.11
2023-03-06T10:10:24.296Z,45.46
2023-03-06T10:13:06.487Z,45.79
2023-03-06T10:15:36.270Z,45.49
2023-03-06T10:18:04.558Z,45.43
2023-03-06T10:20:58.300Z,45.04
2023-03-06T10:23:52.311Z,44.97
2023-03-06T10:26:28.069Z,45.00
2023-03-06T10:29:08.975Z,45.17
2023-03-06T10:31:37.441Z,44.83
2023-03-06T10:34:24.423Z,44.41
2023-03-06T10:36:51.139Z,44.52
2023-03-06T10:39:21.173Z,44.58
2023-03-06T10:41:48.906Z,44.29
2023-03-06T10:44:15.464Z,43.71
2023-03-06T10:46:44.739Z,43.57
2023-03-06T10:49:14.120Z,43.59
2023-03-06T10:52:07.029Z,42.90
2023-03-06T10:54:39.148Z,43.20
2023-03-06T10:57:25.208Z,42.86
2023-03-06T10:59:53.629Z,43.94
2023-03-06T11:02:39.475Z,44.12
2023-03-06T11:05:18.117Z,44.00
2023-03-06T11:07:59.519Z,44.62
2023-03-06T11:10:27.628Z,44.21
2023-03-06T11:13:02.778Z,41.77
2023-03-06T11:15:30.079Z,42.07
2023-03-06T11:18:24.873Z,42.50
2023-03-06T11:20:53.674Z,42.05
2023-03-06T11:23:35.155Z,41.49
2023-03-06T11:26:16.824Z,40.96
2023-03-06T11:28:48.450Z,40.71
2023-03-06T11:31:26.973Z,41.29
2023-03-06T11:34:07.085Z,41.14
2023-03-06T11:36:58.723Z,41.25
2023-03-06T11:39:32.982Z,41.57
2023-03-06T11:42:09.559Z,40.38
2023-03-06T11:44:45.670Z,39.67
2023-03-06T11:47:36.791Z,40.71
2023-03-06T11:50:25.631Z,40.81
2023-03-06T11:53:00.010Z,40.36
2023-03-06T11:56:07.641Z,39.78
2023-03-06T11:58:53.832Z,39.86
2023-03-06T12:01:29.343Z,40.01
2023-03-06T12:04:26.904Z,39.58
2023-03-06T12:07:23.671Z,39.91
2023-03-06T12:09:56.257Z,41.34
2023-03-06T12:12:42.088Z,41.15
2023-03-06T12:15:08.866Z,40.26
2023-03-06T12:17:50.360Z,40.02
2023-03-06T12:20:44.300Z,39.21
2023-03-06T12:23:16.951Z,39.12
2023-03-06T12:25:47.436Z,39.60
2023-03-06T12:28:23.523Z,39.31
2023-03-06T12:31:14.352Z,39.17
2023-03-06T12:33:49.871Z,39.58
2023-03-06T12:36:28.521Z,38.93
2023-03-06T12:38:57.815Z,39.68
2023-03-06T12:41:39.579Z,39.51
2023-03-06T12:44:15.131Z,39.69
2023-03-06T12:46:49.668Z,39.79
2023-03-06T12:49:32.829Z,40.24
2023-03-06T12:52:01.311Z,40.86
2023-03-06T12:54:31.143Z,40.63
2023-03-06T12:56:59.965Z,41.13
2023-03-06T12:59:38.448Z,41.05
2023-03-06T13:02:14.146Z,41.84
2023-03-06T13:04:50.911Z,41.57
2023-03-06T13:07:52.797Z,41.59
2023-03-06T13:10:25.894Z,41.87
2023-03-06T13:13:00.784Z,41.64
2023-03-06T13:15:30.005Z,41.55
2023-03-06T13:17:57.339Z,42.08
2023-03-06T13:20:26.755Z,42.13
2023-03-06T13:22:53.353Z,42.11
2023-03-06T13:25:19.967Z,42.14
2023-03-06T13:27:59.053Z,42.57
2023-03-06T13:30:43.206Z,43.06
2023-03-06T13:33:37.225Z,43.13
2023-03-06T13:36:27.512Z,43.30
2023-03-06T13:39:01.119Z,43.93
2023-03-06T13:41:37.591Z,44.25
2023-03-06T13:44:24.572Z,44.50
2023-03-06T13:47:05.309Z,45.06
2023-03-06T13:49:33.262Z,44.75
2023-03-06T13:52:10.928Z,44.40
2023-03-06T13:54:46.409Z,44.45
2023-03-06T13:57:31.033Z,45.41
2023-03-06T14:00:17.009Z,45.72
2023-03-06T14:03:05.372Z,45.96
2023-03-06T14:05:49.741Z,46.47
2023-03-06T14:08:27.213Z,47.07
2023-03-06T14:11:08.809Z,47.60
2023-03-06T14:13:47.483Z,47.87
2023-03-06T14:16:29.067Z,47.79
2023-03-06T14:18:58.938Z,47.92
2023-03-06T14:21:36.875Z,48.27
2023-03-06T14:24:05.155Z,48.42
2023-03-06T14:26:44.959Z,49.02
2023-03-06T14:29:23.068Z,48.83
2023-03-06T14:31:52.034Z,48.89
2023-03-06T14:34:24.643Z,48.63
2023-03-06T14:36:53.721Z,48.92
2023-03-06T14:39:39.493Z,48.90
2023-03-06T14:42:18.178Z,49.21
2023-03-06T14:44:46.109Z,48.84
2023-03-06T14:47:22.201Z,49.05
2023-03-06T14:50:18.423Z,48.96
2023-03-06T14:52:45.183Z,48.53
2023-03-06T14:55:17.663Z,49.09
2023-03-06T14:57:44.795Z,49.08
2023-03-06T15:00:18.305Z,49.13
2023-03-06T15:02:50.565Z,49.16
2023-03-06T15:05:29.765Z,49.27
2023-03-06T15:08:02.023Z,49.40
2023-03-06T15:10:31.543Z,49.21
2023-03-06T15:13:22.173Z,49.70
2023-03-06T15:16:06.221Z,49.55
2023-03-06T15:18:39.261Z,49.88
2023-03-06T15:21:27.518Z,49.64
2023-03-06T15:23:56.709Z,49.93
2023-03-06T15:26:32.687Z,50.61
2023-03-06T15:29:10.307Z,51.45
2023-03-06T15:31:39.335Z,52.04
2023-03-06T15:34:11.559Z,52.33
2023-03-06T15:36:46.717Z,52.07
2023-03-06T15:39:38.098Z,52.77
2023-03-06T15:42:16.446Z,53.32
2023-03-06T15:44:43.055Z,53.86
2023-03-06T15:47:11.827Z,54.58
2023-03-06T15:49:42.529Z,55.04
2023-03-06T15:52:09.871Z,55.08
2023-03-06T15:54:36.913Z,55.88
2023-03-06T15:57:06.103Z,56.28
2023-03-06T15:59:37.743Z,56.50
2023-03-06T16:02:14.127Z,56.50
2023-03-06T16:04:40.725Z,57.25
2023-03-06T16:07:07.296Z,57.68
2023-03-06T16:09:33.939Z,58.38
2023-03-06T16:12:00.556Z,58.76
2023-03-06T16:14:27.370Z,58.82
2023-03-06T16:16:54.761Z,59.44
2023-03-06T16:19:26.501Z,59.58
2023-03-06T16:21:55.038Z,59.69
2023-03-06T16:24:21.991Z,59.94
2023-03-06T16:26:53.487Z,59.94
2023-03-06T16:29:23.065Z,60.46
2023-03-06T16:31:50.019Z,60.27
2023-03-06T16:34:19.813Z,60.56
2023-03-06T16:36:48.397Z,61.40
2023-03-06T16:39:16.520Z,61.39
2023-03-06T16:41:43.147Z,61.73
2023-03-06T16:44:10.579Z,61.74
2023-03-06T16:46:40.380Z,62.65
2023-03-06T16:49:07.294Z,62.98
2023-03-06T16:51:34.086Z,63.30
2023-03-06T16:54:00.715Z,63.37
2023-03-06T16:56:27.327Z,63.42
2023-03-06T16:58:53.910Z,63.79
2023-03-06T17:01:20.614Z,63.99
2023-03-06T17:03:47.241Z,63.76
2023-03-06T17:06:19.038Z,64.12
2023-03-06T17:08:46.309Z,63.67
2023-03-06T17:11:13.837Z,63.76
2023-03-06T17:13:40.716Z,63.65
2023-03-06T17:16:09.551Z,64.03
2023-03-06T17:18:36.219Z,63.73
2023-03-06T17:21:02.927Z,63.50
2023-03-06T17:23:30.439Z,63.79
2023-03-06T17:26:08.759Z,64.04
2023-03-06T17:28:37.012Z,64.69
2023-03-06T17:31:11.920Z,64.13
2023-03-06T17:33:38.454Z,64.43
2023-03-06T17:36:05.299Z,64.59
2023-03-06T17:38:31.850Z,64.98
2023-03-06T17:41:03.840Z,65.04
2023-03-06T17:43:31.142Z,65.29
2023-03-06T17:45:58.019Z,65.83
2023-03-06T17:48:24.519Z,65.48
2023-03-06T17:50:55.440Z,65.54
2023-03-06T17:53:23.201Z,65.90
2023-03-06T17:55:49.795Z,65.74
2023-03-06T17:58:16.599Z,66.21
2023-03-06T18:00:43.683Z,66.11
2023-03-06T18:03:10.354Z,66.19
2023-03-06T18:05:37.723Z,66.43
2023-03-06T18:08:04.786Z,66.67
2023-03-06T18:10:31.455Z,66.71
2023-03-06T18:12:57.927Z,66.45
2023-03-06T18:15:27.169Z,66.50
2023-03-06T18:17:54.803Z,67.04
2023-03-06T18:20:21.391Z,67.23
2023-03-06T18:22:47.919Z,67.49
2023-03-06T18:25:14.456Z,67.19
2023-03-06T18:27:41.012Z,67.43
2023-03-06T18:30:08.155Z,66.94
2023-03-06T18:32:35.284Z,66.78
2023-03-06T18:35:01.910Z,66.61
2023-03-06T18:37:28.506Z,67.24
2023-03-06T18:39:55.177Z,67.13
2023-03-06T18:42:23.845Z,67.58
2023-03-06T18:44:50.409Z,67.71
2023-03-06T18:47:17.103Z,68.09
2023-03-06T18:49:45.959Z,68.20
2023-03-06T18:52:12.938Z,67.88
2023-03-06T18:54:39.688Z,67.76
2023-03-06T18:57:06.366Z,67.65
2023-03-06T18:59:33.215Z,67.62
2023-03-06T19:01:59.872Z,67.29
2023-03-06T19:04:26.726Z,67.21
2023-03-06T19:06:54.654Z,67.83
2023-03-06T19:09:22.011Z,67.43
2023-03-06T19:11:49.679Z,67.95
2023-03-06T19:14:16.816Z,68.23
2023-03-06T19:16:43.548Z,68.09
2023-03-06T19:19:10.239Z,68.20
2023-03-06T19:21:36.874Z,68.27
2023-03-06T19:24:03.507Z,67.96
2023-03-06T19:26:33.350Z,68.38
2023-03-06T19:28:59.915Z,68.09
2023-03-06T19:31:27.998Z,68.54
2023-03-06T19:33:56.645Z,68.20
2023-03-06T19:36:27.822Z,68.51
2023-03-06T19:38:58.186Z,68.66
2023-03-06T19:41:25.753Z,68.47
2023-03-06T19:43:55.157Z,68.25
2023-03-06T19:46:23.006Z,68.62
2023-03-06T19:48:57.931Z,68.51
2023-03-06T19:51:24.755Z,68.70
2023-03-06T19:53:51.419Z,68.57
2023-03-06T19:56:21.276Z,68.50
2023-03-06T19:58:48.033Z,68.44
2023-03-06T20:01:17.277Z,68.92
2023-03-06T20:03:43.928Z,68.21
2023-03-06T20:06:16.499Z,68.69
2023-03-06T20:08:43.660Z,68.80
2023-03-06T20:11:21.394Z,68.61
2023-03-06T20:13:48.748Z,68.45
2023-03-06T20:16:18.848Z,68.34
2023-03-06T20:18:45.796Z,68.72
2023-03-06T20:21:12.593Z,68.65
2023-03-06T20:23:39.413Z,68.76
2023-03-06T20:26:09.706Z,68.42
2023-03-06T20:28:39.060Z,68.69
2023-03-06T20:31:09.971Z,68.60
2023-03-06T20:33:36.925Z,68.27
2023-03-06T20:36:15.423Z,68.05
2023-03-06T20:38:42.453Z,68.49
2023-03-06T20:41:20.225Z,68.79
2023-03-06T20:43:46.843Z,69.08
2023-03-06T20:46:14.757Z,68.72
2023-03-06T20:48:42.380Z,68.93
2023-03-06T20:51:16.456Z,68.94
2023-03-06T20:53:43.195Z,68.57
2023-03-06T20:56:21.508Z,69.02
2023-03-06T20:58:48.169Z,68.65
2023-03-06T21:01:23.432Z,69.08
2023-03-06T21:03:50.514Z,68.96
2023-03-06T21:06:17.664Z,69.34
2023-03-06T21:08:44.172Z,69.12
2023-03-06T21:11:11.006Z,69.41
2023-03-06T21:13:37.734Z,69.31
2023-03-06T21:16:09.862Z,69.82
2023-03-06T21:18:36.540Z,70.14
2023-03-06T21:21:18.472Z,69.95
2023-03-06T21:23:46.454Z,70.35
2023-03-06T21:26:15.056Z,70.53
2023-03-06T21:28:41.799Z,70.43
2023-03-06T21:31:12.796Z,71.13
2023-03-06T21:33:39.951Z,70.65
2023-03-06T21:36:07.164Z,70.68
2023-03-06T21:38:34.121Z,71.11
2023-03-06T21:41:09.753Z,71.01
2023-03-06T21:43:36.408Z,71.05
2023-03-06T21:46:03.028Z,71.14
2023-03-06T21:48:29.577Z,71.18
2023-03-06T21:51:15.765Z,71.28
2023-03-06T21:53:44.112Z,71.16
2023-03-06T21:56:11.920Z,71.49
2023-03-06T21:58:38.567Z,71.50
2023-03-06T22:01:13.098Z,71.82
2023-03-06T22:03:40.064Z,72.20
2023-03-06T22:06:08.624Z,71.83
2023-03-06T22:08:35.146Z,71.60
2023-03-06T22:11:06.485Z,72.29
2023-03-06T22:13:33.044Z,72.30
2023-03-06T22:15:59.600Z,72.12
2023-03-06T22:18:26.154Z,71.82
2023-03-06T22:20:52.666Z,72.24
2023-03-06T22:23:19.259Z,71.96
2023-03-06T22:25:45.812Z,71.66
2023-03-06T22:28:13.229Z,71.78
2023-03-06T22:30:39.728Z,72.20
2023-03-06T22:33:06.268Z,72.20
2023-03-06T22:35:32.969Z,71.86
2023-03-06T22:38:02.764Z,71.73
2023-03-06T22:40:29.326Z,71.65
2023-03-06T22:42:56.222Z,71.95
2023-03-06T22:45:22.975Z,71.52
2023-03-06T22:47:50.795Z,71.84
2023-03-06T22:50:18.899Z,72.12
2023-03-06T22:52:45.442Z,71.89
2023-03-06T22:55:11.983Z,72.19
2023-03-06T22:57:38.546Z,72.23
2023-03-06T23:00:07.435Z,71.97
2023-03-06T23:02:35.205Z,72.47
2023-03-06T23:05:02.019Z,72.05
2023-03-06T23:07:28.552Z,72.50
2023-03-06T23:09:55.118Z,72.46
2023-03-06T23:12:21.958Z,72.31
2023-03-06T23:14:51.108Z,72.56
2023-03-06T23:17:18.030Z,72.62
2023-03-06T23:19:44.745Z,72.83
2023-03-06T23:22:11.388Z,72.92
2023-03-06T23:24:38.016Z,73.08
2023-03-06T23:27:04.791Z,72.76
2023-03-06T23:29:31.606Z,73.27
2023-03-06T23:31:58.123Z,72.59
2023-03-06T23:34:24.716Z,72.75
2023-03-06T23:36:51.288Z,73.43
2023-03-06T23:39:18.910Z,73.01
2023-03-06T23:41:45.695Z,73.26
2023-03-06T23:44:12.227Z,73.73
2023-03-06T23:46:38.868Z,74.09
2023-03-06T23:49:06.336Z,74.17
2023-03-06T23:51:32.906Z,73.47
2023-03-06T23:54:00.441Z,74.05
2023-03-06T23:56:28.959Z,73.69
2023-03-06T23:58:55.706Z,73.99
